createdAt,value
2019-04-20T00:01:40.782Z,43.40
2019-04-20T00:04:20.703Z,43.21
2019-04-20T00:06:50.123Z,43.32
2019-04-20T00:09:26.014Z,43.44
2019-04-20T00:12:06.263Z,43.80
2019-04-20T00:14:32.091Z,44.31
2019-04-20T00:17:02.950Z,44.25
2019-04-20T00:19:40.451Z,44.71
2019-04-20T00:22:15.234Z,44.90
2019-04-20T00:25:04.049Z,45.10
2019-04-20T00:27:55.418Z,45.06
2019-04-20T00:30:32.543Z,45.15
2019-04-20T00:32:53.250Z,45.21
2019-04-20T00:35:14.760Z,45.46
2019-04-20T00:37:48.777Z,45.61
2019-04-20T00:40:21.527Z,45.62
2019-04-20T00:42:55.654Z,46.04
2019-04-20T00:45:30.558Z,46.20
2019-04-20T00:48:08.109Z,45.83
2019-04-20T00:50:53.968Z,45.68
2019-04-20T00:53:19.846Z,45.90
2019-04-20T00:55:44.497Z,46.41
2019-04-20T00:58:23.396Z,46.94
2019-04-20T01:01:18.896Z,47.15
2019-04-20T01:03:39.066Z,47.69
2019-04-20T01:06:23.145Z,47.99
2019-04-20T01:08:48.478Z,48.29
2019-04-20T01:11:27.000Z,48.47
2019-04-20T01:14:00.553Z,48.70
2019-04-20T01:16:36.597Z,48.71
2019-04-20T01:19:01.782Z,48.80
2019-04-20T01:21:35.478Z,49.03
2019-04-20T01:24:08.884Z,49.08
2019-04-20T01:26:43.676Z,49.26
2019-04-20T01:29:25.015Z,49.45
2019-04-20T01:32:03.619Z,49.49
2019-04-20T01:34:37.950Z,49.36
2019-04-20T01:37:14.462Z,48.62
2019-04-20T01:39:37.045Z,48.83
2019-04-20T01:42:04.595Z,48.97
2019-04-20T01:44:41.922Z,48.92
2019-04-20T01:47:11.609Z,49.09
2019-04-20T01:49:48.633Z,49.29
2019-04-20T01:52:27.099Z,49.66
2019-04-20T01:55:22.750Z,50.05
2019-04-20T01:57:59.876Z,50.49
2019-04-20T02:00:44.853Z,51.03
2019-04-20T02:03:55.488Z,51.41
2019-04-20T02:06:28.634Z,51.73
2019-04-20T02:09:06.721Z,52.11
2019-04-20T02:11:40.144Z,52.45
2019-04-20T02:14:11.994Z,52.46
2019-04-20T02:16:48.069Z,52.62
2019-04-20T02:19:30.702Z,52.56
2019-04-20T02:22:03.952Z,52.24
2019-04-20T02:24:25.773Z,52.54
2019-04-20T02:26:57.934Z,52.78
2019-04-20T02:29:50.733Z,52.79
2019-04-20T02:32:27.248Z,53.19
2019-04-20T02:35:34.617Z,52.90
2019-04-20T02:38:36.856Z,52.33
2019-04-20T02:40:50.574Z,52.11
2019-04-20T02:43:39.628Z,52.97
2019-04-20T02:45:57.597Z,53.29
2019-04-20T02:48:39.387Z,53.48
2019-04-20T02:53:53.623Z,53.94
2019-04-20T02:56:21.866Z,54.23
2019-04-20T02:59:13.182Z,54.27
2019-04-20T03:01:55.305Z,54.26
2019-04-20T03:04:01.888Z,54.34
2019-04-20T03:06:46.718Z,54.44
2019-04-20T03:09:29.875Z,54.31
2019-04-20T03:12:06.151Z,54.29
2019-04-20T03:14:30.393Z,54.40
2019-04-20T03:17:10.312Z,53.93
2019-04-20T03:19:37.606Z,53.58
2019-04-20T03:22:24.579Z,54.04
2019-04-20T03:24:54.439Z,54.46
2019-04-20T03:27:33.107Z,54.13
2019-04-20T03:31:04.036Z,54.29
2019-04-20T03:33:24.452Z,54.45
2019-04-20T03:35:55.197Z,54.45
2019-04-20T03:38:06.085Z,54.44
2019-04-20T03:40:29.997Z,54.38
2019-04-20T03:42:52.611Z,54.43
2019-04-20T03:45:26.553Z,54.69
2019-04-20T03:48:09.857Z,54.46
2019-04-20T03:50:51.146Z,54.00
2019-04-20T03:53:39.736Z,53.80
2019-04-20T03:55:58.882Z,53.74
2019-04-20T03:58:55.467Z,53.07
2019-04-20T04:02:20.074Z,54.15
2019-04-20T04:04:38.955Z,54.01
2019-04-20T04:06:56.544Z,53.91
2019-04-20T04:09:37.059Z,54.38
2019-04-20T04:12:54.750Z,53.99
2019-04-20T04:15:27.529Z,54.01
2019-04-20T04:18:07.401Z,53.13
2019-04-20T04:20:41.851Z,52.48
2019-04-20T04:23:24.583Z,51.93
2019-04-20T04:26:00.841Z,51.64
2019-04-20T04:28:31.416Z,52.25
2019-04-20T04:31:23.307Z,52.25
2019-04-20T04:36:15.499Z,52.88
2019-04-20T04:38:57.179Z,52.42
2019-04-20T04:41:38.036Z,52.25
2019-04-20T04:43:53.798Z,51.76
2019-04-20T04:46:12.374Z,51.20
2019-04-20T04:48:47.481Z,50.71
2019-04-20T04:51:22.735Z,50.29
2019-04-20T04:53:59.802Z,49.99
2019-04-20T04:56:26.990Z,49.63
2019-04-20T04:59:00.293Z,49.15
2019-04-20T05:01:35.344Z,48.73
2019-04-20T05:04:25.185Z,49.05
2019-04-20T05:06:53.552Z,48.66
2019-04-20T05:09:15.310Z,47.90
2019-04-20T05:11:50.720Z,47.44
2019-04-20T05:14:26.256Z,47.03
2019-04-20T05:17:07.367Z,46.64
2019-04-20T05:19:49.792Z,46.41
2019-04-20T05:22:24.910Z,46.09
2019-04-20T05:25:04.674Z,45.52
2019-04-20T05:27:57.240Z,45.02
2019-04-20T05:30:10.112Z,44.72
2019-04-20T05:32:51.418Z,44.22
2019-04-20T05:35:37.859Z,43.71
2019-04-20T05:38:11.914Z,43.07
2019-04-20T05:40:46.214Z,42.75
2019-04-20T05:43:24.307Z,42.07
2019-04-20T05:45:50.207Z,41.71
2019-04-20T05:48:24.765Z,41.60
2019-04-20T05:51:01.781Z,41.46
2019-04-20T05:53:42.657Z,41.20
2019-04-20T05:56:10.639Z,41.06
2019-04-20T05:58:45.412Z,40.67
2019-04-20T06:01:22.942Z,40.30
2019-04-20T06:03:49.040Z,39.92
2019-04-20T06:06:27.437Z,39.88
2019-04-20T06:09:06.854Z,39.54
2019-04-20T06:11:34.987Z,39.74
2019-04-20T06:14:10.154Z,39.51
2019-04-20T06:17:21.209Z,39.07
2019-04-20T06:19:58.245Z,38.84
2019-04-20T06:22:35.879Z,38.38
2019-04-20T06:25:31.299Z,38.10
2019-04-20T06:27:45.051Z,37.75
2019-04-20T06:30:13.653Z,37.68
2019-04-20T06:34:01.436Z,37.30
2019-04-20T06:36:43.133Z,37.06
2019-04-20T06:39:02.271Z,36.79
2019-04-20T06:41:44.698Z,36.61
2019-04-20T06:44:08.209Z,36.41
2019-04-20T06:46:45.601Z,36.08
2019-04-20T06:49:18.295Z,35.60
2019-04-20T06:51:59.141Z,35.06
2019-04-20T06:54:20.002Z,35.14
2019-04-20T06:57:07.243Z,34.50
2019-04-20T06:59:54.999Z,34.23
2019-04-20T07:02:21.916Z,33.89
2019-04-20T07:04:49.615Z,33.52
2019-04-20T07:10:02.603Z,33.38
2019-04-20T07:12:24.100Z,33.32
2019-04-20T07:14:51.911Z,33.14
2019-04-20T07:17:54.690Z,32.47
2019-04-20T07:20:59.510Z,32.64
2019-04-20T07:23:32.940Z,32.25
2019-04-20T07:26:09.537Z,32.28
2019-04-20T07:28:41.337Z,32.07
2019-04-20T07:31:08.267Z,31.89
2019-04-20T07:33:50.967Z,31.76
2019-04-20T07:36:24.434Z,31.33
2019-04-20T07:38:54.086Z,31.15
2019-04-20T07:41:32.925Z,30.73
2019-04-20T07:44:24.823Z,30.54
2019-04-20T07:46:49.913Z,30.31
2019-04-20T07:49:08.665Z,30.35
2019-04-20T07:51:26.618Z,30.52
2019-04-20T07:54:24.591Z,30.00
2019-04-20T07:56:48.022Z,29.82
2019-04-20T07:59:14.251Z,29.83
2019-04-20T08:02:08.523Z,29.75
2019-04-20T08:04:36.402Z,29.76
2019-04-20T08:07:00.507Z,29.62
2019-04-20T08:09:37.937Z,29.66
2019-04-20T08:12:34.075Z,29.83
2019-04-20T08:15:03.771Z,29.52
2019-04-20T08:17:37.415Z,29.33
2019-04-20T08:20:05.727Z,29.49
2019-04-20T08:22:42.191Z,28.79
2019-04-20T08:25:08.302Z,28.16
2019-04-20T08:27:46.653Z,27.85
2019-04-20T08:30:55.742Z,27.81
2019-04-20T08:33:33.647Z,27.67
2019-04-20T08:36:13.537Z,27.26
2019-04-20T08:41:08.273Z,27.82
2019-04-20T08:46:20.712Z,27.79
2019-04-20T08:48:51.013Z,27.00
2019-04-20T08:51:26.025Z,26.89
2019-04-20T08:53:56.384Z,26.69
2019-04-20T08:56:30.209Z,26.96
2019-04-20T08:58:48.349Z,27.19
2019-04-20T09:01:26.573Z,26.82
2019-04-20T09:04:02.470Z,26.59
2019-04-20T09:06:40.021Z,26.42
2019-04-20T09:09:34.830Z,26.10
2019-04-20T09:11:55.632Z,25.33
2019-04-20T09:14:21.319Z,25.33
2019-04-20T09:17:07.272Z,25.89
2019-04-20T09:19:46.943Z,25.01
2019-04-20T09:22:40.531Z,25.08
2019-04-20T09:25:43.047Z,25.88
2019-04-20T09:27:51.697Z,24.78
2019-04-20T09:30:30.332Z,25.10
2019-04-20T09:33:14.585Z,25.00
2019-04-20T09:35:42.958Z,24.87
2019-04-20T09:38:13.488Z,25.30
2019-04-20T09:40:50.751Z,24.80
2019-04-20T09:43:32.320Z,24.48
2019-04-20T09:46:08.064Z,24.04
2019-04-20T09:48:42.633Z,23.20
2019-04-20T09:51:30.692Z,22.72
2019-04-20T09:53:54.862Z,23.42
2019-04-20T09:56:33.356Z,23.08
2019-04-20T09:59:12.245Z,22.91
2019-04-20T10:01:35.096Z,23.04
2019-04-20T10:04:01.291Z,22.80
2019-04-20T10:06:35.900Z,22.84
2019-04-20T10:09:09.671Z,21.92
2019-04-20T10:11:44.199Z,22.54
2019-04-20T10:14:16.459Z,22.63
2019-04-20T10:16:49.722Z,23.36
2019-04-20T10:19:26.550Z,23.44
2019-04-20T10:21:56.889Z,23.25
2019-04-20T10:24:30.538Z,22.84
2019-04-20T10:27:03.050Z,23.74
2019-04-20T10:29:35.576Z,23.15
2019-04-20T10:32:12.537Z,22.19
2019-04-20T10:34:41.157Z,21.94
2019-04-20T10:37:23.911Z,21.71
2019-04-20T10:39:56.603Z,21.81
2019-04-20T10:42:30.155Z,22.00
2019-04-20T10:45:04.144Z,21.87
2019-04-20T10:47:37.113Z,22.04
2019-04-20T10:50:11.313Z,21.90
2019-04-20T10:52:43.716Z,21.45
2019-04-20T10:55:16.507Z,21.34
2019-04-20T10:57:49.384Z,21.81
2019-04-20T11:00:41.806Z,21.46
2019-04-20T11:03:17.617Z,21.55
2019-04-20T11:05:50.972Z,20.78
2019-04-20T11:08:24.401Z,19.97
2019-04-20T11:11:07.054Z,20.43
2019-04-20T11:13:30.919Z,20.03
2019-04-20T11:16:04.198Z,19.48
2019-04-20T11:18:37.698Z,19.33
2019-04-20T11:21:11.427Z,19.01
2019-04-20T11:23:44.485Z,18.68
2019-04-20T11:26:18.023Z,18.96
2019-04-20T11:28:50.464Z,18.85
2019-04-20T11:31:26.811Z,18.24
2019-04-20T11:33:58.325Z,17.88
2019-04-20T11:36:31.023Z,18.13
2019-04-20T11:39:04.954Z,17.81
2019-04-20T11:41:38.988Z,18.15
2019-04-20T11:44:11.751Z,17.79
2019-04-20T11:46:44.928Z,17.66
2019-04-20T11:49:17.485Z,18.05
2019-04-20T11:51:49.848Z,18.08
2019-04-20T11:54:24.237Z,17.70
2019-04-20T11:56:57.406Z,16.19
2019-04-20T11:59:30.604Z,17.11
2019-04-20T12:02:26.935Z,16.49
2019-04-20T12:05:10.087Z,16.84
2019-04-20T12:07:40.575Z,17.40
2019-04-20T12:10:18.717Z,16.90
2019-04-20T12:12:50.463Z,16.22
2019-04-20T12:15:20.472Z,16.02
2019-04-20T12:17:53.666Z,15.52
2019-04-20T12:20:26.936Z,15.20
2019-04-20T12:23:00.237Z,15.36
2019-04-20T12:25:34.555Z,14.97
2019-04-20T12:28:07.473Z,14.43
2019-04-20T12:30:39.828Z,14.47
2019-04-20T12:33:13.454Z,14.14
2019-04-20T12:35:45.424Z,13.86
2019-04-20T12:38:19.006Z,12.75
2019-04-20T12:40:52.349Z,12.25
2019-04-20T12:43:25.542Z,11.64
2019-04-20T12:45:57.946Z,11.02
2019-04-20T12:48:31.488Z,10.50
2019-04-20T12:51:03.851Z,9.35
2019-04-20T12:53:36.224Z,9.05
2019-04-20T12:56:08.657Z,8.52
2019-04-20T12:58:43.358Z,8.27
2019-04-20T13:01:17.233Z,8.03
2019-04-20T13:03:48.070Z,7.79
2019-04-20T13:06:19.989Z,8.13
2019-04-20T13:08:56.866Z,8.48
2019-04-20T13:11:49.441Z,8.25
2019-04-20T13:15:26.454Z,8.49
2019-04-20T13:18:01.220Z,8.18
2019-04-20T13:20:34.117Z,7.46
2019-04-20T13:23:10.990Z,5.95
2019-04-20T13:25:43.392Z,5.87
2019-04-20T13:28:15.308Z,5.63
2019-04-20T13:30:48.055Z,4.58
2019-04-20T13:33:20.200Z,3.80
2019-04-20T13:35:52.570Z,3.69
2019-04-20T13:38:25.580Z,3.05
2019-04-20T13:40:57.856Z,2.71
2019-04-20T13:43:30.054Z,2.39
2019-04-20T13:46:02.902Z,2.25
2019-04-20T13:48:35.333Z,2.16
2019-04-20T13:51:07.872Z,2.23
2019-04-20T13:53:41.053Z,2.70
2019-04-20T13:56:16.165Z,2.97
2019-04-20T13:59:03.438Z,3.43
2019-04-20T14:01:59.075Z,3.90
2019-04-20T14:04:34.803Z,3.96
2019-04-20T14:07:06.887Z,3.32
2019-04-20T14:09:39.752Z,3.21
2019-04-20T14:12:22.488Z,3.39
2019-04-20T14:14:46.825Z,3.83
2019-04-20T14:17:19.626Z,3.57
2019-04-20T14:19:52.900Z,3.20
2019-04-20T14:22:25.000Z,3.39
2019-04-20T14:24:57.339Z,3.39
2019-04-20T14:27:30.830Z,3.18
2019-04-20T14:30:03.523Z,2.62
2019-04-20T14:32:36.863Z,2.23
2019-04-20T14:35:11.355Z,2.07
2019-04-20T14:37:44.007Z,2.02
2019-04-20T14:40:16.660Z,1.90
2019-04-20T14:42:52.990Z,1.68
2019-04-20T14:45:22.940Z,2.03
2019-04-20T14:47:55.090Z,2.07
2019-04-20T14:50:27.618Z,2.18
2019-04-20T14:53:00.019Z,2.23
2019-04-20T14:55:31.824Z,1.98
2019-04-20T14:58:09.078Z,1.87
2019-04-20T15:00:56.602Z,1.77
2019-04-20T15:03:40.915Z,1.64
2019-04-20T15:06:13.663Z,2.10
2019-04-20T15:08:45.790Z,2.49
2019-04-20T15:11:18.762Z,2.43
2019-04-20T15:13:50.952Z,2.40
2019-04-20T15:16:22.772Z,2.37
2019-04-20T15:19:25.734Z,2.32
2019-04-20T15:21:59.799Z,2.39
2019-04-20T15:24:31.986Z,2.27
2019-04-20T15:27:04.758Z,2.32
2019-04-20T15:29:38.194Z,2.33
2019-04-20T15:32:10.309Z,2.41
2019-04-20T15:34:42.748Z,2.91
2019-04-20T15:37:16.082Z,2.99
2019-04-20T15:39:48.381Z,3.08
2019-04-20T15:42:21.245Z,3.01
2019-04-20T15:44:53.566Z,3.01
2019-04-20T15:47:25.884Z,3.40
2019-04-20T15:49:58.115Z,3.59
2019-04-20T15:52:36.727Z,3.64
2019-04-20T15:55:11.812Z,3.50
2019-04-20T15:57:38.687Z,3.49
2019-04-20T16:00:11.766Z,3.49
2019-04-20T16:02:51.437Z,3.81
2019-04-20T16:05:40.926Z,3.91
2019-04-20T16:08:24.184Z,4.16
2019-04-20T16:10:57.197Z,5.26
2019-04-20T16:13:36.058Z,7.31
2019-04-20T16:16:03.821Z,8.81
2019-04-20T16:18:37.035Z,8.70
2019-04-20T16:21:14.275Z,8.67
2019-04-20T16:23:55.058Z,8.99
2019-04-20T16:26:47.481Z,9.48
2019-04-20T16:29:21.837Z,10.12
2019-04-20T16:31:54.383Z,11.25
2019-04-20T16:34:27.600Z,12.54
2019-04-20T16:37:00.156Z,13.66
2019-04-20T16:39:32.523Z,13.54
2019-04-20T16:42:06.510Z,13.31
2019-04-20T16:44:39.022Z,14.23
2019-04-20T16:47:12.300Z,14.57
2019-04-20T16:49:44.346Z,14.40
2019-04-20T16:52:16.912Z,15.18
2019-04-20T16:54:50.029Z,15.84
2019-04-20T16:57:23.573Z,16.26
2019-04-20T16:59:57.774Z,16.90
2019-04-20T17:02:29.924Z,17.53
2019-04-20T17:05:03.044Z,17.70
2019-04-20T17:07:42.826Z,17.75
2019-04-20T17:10:17.932Z,18.26
2019-04-20T17:12:51.440Z,19.14
2019-04-20T17:15:25.555Z,19.86
2019-04-20T17:17:58.950Z,20.29
2019-04-20T17:20:32.754Z,20.91
2019-04-20T17:23:08.362Z,21.41
2019-04-20T17:25:39.840Z,22.00
2019-04-20T17:28:40.656Z,22.47
2019-04-20T17:31:31.529Z,23.09
2019-04-20T17:34:27.037Z,23.45
2019-04-20T17:36:46.362Z,23.87
2019-04-20T17:39:30.244Z,24.64
2019-04-20T17:42:10.036Z,25.37
2019-04-20T17:44:41.252Z,25.91
2019-04-20T17:47:20.468Z,26.04
2019-04-20T17:49:51.578Z,26.83
2019-04-20T17:52:27.800Z,27.66
2019-04-20T17:54:47.550Z,28.43
2019-04-20T17:57:19.574Z,28.80
2019-04-20T17:59:59.927Z,29.01
2019-04-20T18:03:00.575Z,30.13
2019-04-20T18:05:39.097Z,30.23
2019-04-20T18:08:19.351Z,30.62
2019-04-20T18:10:37.915Z,30.79
2019-04-20T18:13:07.062Z,31.30
2019-04-20T18:15:49.835Z,31.94
2019-04-20T18:18:44.113Z,32.41
2019-04-20T18:21:26.686Z,32.88
2019-04-20T18:23:58.671Z,32.84
2019-04-20T18:26:47.947Z,33.16
2019-04-20T18:29:28.087Z,33.60
2019-04-20T18:31:47.326Z,34.14
2019-04-20T18:34:38.248Z,33.77
2019-04-20T18:37:16.419Z,33.98
2019-04-20T18:39:54.766Z,33.69
2019-04-20T18:42:28.379Z,33.40
2019-04-20T18:45:09.073Z,33.33
2019-04-20T18:47:45.540Z,33.81
2019-04-20T18:50:11.741Z,33.96
2019-04-20T18:52:35.684Z,34.22
2019-04-20T18:55:17.394Z,34.44
2019-04-20T18:57:43.456Z,34.09
2019-04-20T19:00:27.997Z,33.99
2019-04-20T19:02:57.749Z,33.03
2019-04-20T19:05:29.500Z,32.45
2019-04-20T19:08:06.809Z,32.29
2019-04-20T19:10:38.629Z,32.37
2019-04-20T19:13:22.438Z,32.47
2019-04-20T19:16:16.579Z,32.77
2019-04-20T19:19:03.957Z,33.07
2019-04-20T19:21:26.994Z,33.41
2019-04-20T19:24:06.595Z,33.51
2019-04-20T19:26:34.199Z,33.95
2019-04-20T19:29:14.017Z,34.28
2019-04-20T19:31:57.321Z,34.42
2019-04-20T19:34:31.488Z,34.59
2019-04-20T19:37:00.853Z,34.71
2019-04-20T19:39:40.233Z,34.90
2019-04-20T19:42:13.141Z,35.10
2019-04-20T19:44:44.945Z,35.03
2019-04-20T19:47:25.996Z,35.22
2019-04-20T19:49:45.007Z,35.46
2019-04-20T19:52:36.787Z,35.87
2019-04-20T19:55:02.551Z,36.36
2019-04-20T19:57:39.841Z,36.49
2019-04-20T19:59:55.538Z,36.53
2019-04-20T20:02:25.945Z,36.62
2019-04-20T20:05:04.703Z,36.51
2019-04-20T20:07:38.857Z,36.74
2019-04-20T20:10:08.908Z,37.01
2019-04-20T20:12:49.366Z,37.37
2019-04-20T20:15:24.221Z,37.43
2019-04-20T20:18:10.955Z,37.74
2019-04-20T20:20:47.626Z,38.09
2019-04-20T20:23:00.113Z,38.11
2019-04-20T20:25:38.422Z,38.54
2019-04-20T20:28:20.249Z,38.71
2019-04-20T20:30:53.642Z,38.88
2019-04-20T20:33:36.299Z,39.00
2019-04-20T20:35:58.355Z,39.05
2019-04-20T20:38:31.301Z,39.19
2019-04-20T20:41:05.701Z,39.26
2019-04-20T20:43:44.660Z,39.14
2019-04-20T20:46:16.249Z,39.23
2019-04-20T20:49:03.740Z,39.24
2019-04-20T20:51:39.411Z,38.64
2019-04-20T20:53:57.920Z,38.36
2019-04-20T20:56:27.725Z,38.22
2019-04-20T20:59:00.732Z,38.20
2019-04-20T21:01:39.566Z,38.55
2019-04-20T21:04:02.538Z,38.34
2019-04-20T21:06:34.983Z,38.46
2019-04-20T21:09:08.421Z,38.77
2019-04-20T21:11:42.333Z,39.20
2019-04-20T21:14:21.063Z,39.64
2019-04-20T21:16:56.977Z,39.74
2019-04-20T21:19:41.794Z,39.71
2019-04-20T21:22:04.833Z,39.88
2019-04-20T21:24:36.138Z,39.84
2019-04-20T21:27:13.327Z,39.87
2019-04-20T21:29:48.642Z,39.57
2019-04-20T21:32:18.035Z,39.66
2019-04-20T21:34:55.624Z,39.41
2019-04-20T21:37:26.941Z,39.03
2019-04-20T21:40:00.555Z,38.96
2019-04-20T21:42:39.638Z,38.85
2019-04-20T21:45:10.316Z,38.70
2019-04-20T21:47:41.761Z,38.55
2019-04-20T21:50:34.204Z,38.34
2019-04-20T21:52:51.958Z,38.21
2019-04-20T21:55:21.774Z,38.41
2019-04-20T21:57:58.462Z,38.63
2019-04-20T22:00:42.680Z,38.86
2019-04-20T22:03:15.536Z,38.92
2019-04-20T22:05:48.487Z,38.86
2019-04-20T22:08:22.096Z,39.22
2019-04-20T22:10:55.355Z,39.25
2019-04-20T22:13:33.394Z,39.33
2019-04-20T22:16:06.489Z,39.49
2019-04-20T22:18:48.205Z,39.66
2019-04-20T22:21:19.869Z,39.66
2019-04-20T22:23:59.847Z,39.62
2019-04-20T22:26:26.720Z,39.69
2019-04-20T22:28:52.133Z,39.69
2019-04-20T22:31:24.363Z,39.32
2019-04-20T22:34:02.240Z,39.17
2019-04-20T22:36:35.599Z,38.90
2019-04-20T22:39:13.663Z,38.82
2019-04-20T22:41:54.652Z,38.79
2019-04-20T22:44:26.662Z,38.81
2019-04-20T22:46:58.477Z,38.84
2019-04-20T22:49:45.754Z,38.75
2019-04-20T22:52:24.075Z,39.05
2019-04-20T22:54:54.737Z,39.34
2019-04-20T22:57:27.725Z,39.16
2019-04-20T22:59:54.418Z,39.22
2019-04-20T23:02:22.548Z,39.20
2019-04-20T23:04:54.931Z,39.35
2019-04-20T23:07:28.410Z,39.15
2019-04-20T23:10:03.244Z,39.30
2019-04-20T23:12:35.760Z,39.45
2019-04-20T23:15:10.374Z,39.57
2019-04-20T23:17:45.866Z,40.03
2019-04-20T23:20:25.241Z,40.23
2019-04-20T23:22:51.761Z,40.25
2019-04-20T23:25:25.109Z,40.46
2019-04-20T23:28:00.564Z,40.71
2019-04-20T23:30:34.494Z,40.96
2019-04-20T23:33:04.380Z,41.30
2019-04-20T23:35:37.508Z,41.46
2019-04-20T23:38:14.357Z,41.72
2019-04-20T23:40:45.832Z,41.78
2019-04-20T23:43:28.855Z,41.83
2019-04-20T23:46:29.366Z,41.74
2019-04-20T23:49:24.038Z,41.91
2019-04-20T23:52:09.972Z,42.01
2019-04-20T23:54:29.366Z,42.27
2019-04-20T23:56:59.695Z,42.19
2019-04-20T23:59:38.032Z,42.31
